createdAt,value
2018-08-23T00:00:11.929Z,5.17
2018-08-23T00:02:39.233Z,4.90
2018-08-23T00:05:06.575Z,3.73
2018-08-23T00:07:33.873Z,4.57
2018-08-23T00:10:01.897Z,4.60
2018-08-23T00:12:40.809Z,4.47
2018-08-23T00:15:09.022Z,4.27
2018-08-23T00:17:40.859Z,4.47
2018-08-23T00:20:08.237Z,4.53
2018-08-23T00:22:35.529Z,4.40
2018-08-23T00:25:02.826Z,4.90
2018-08-23T00:27:31.068Z,4.60
2018-08-23T00:29:58.350Z,4.67
2018-08-23T00:32:25.821Z,4.60
2018-08-23T00:34:53.110Z,5.50
2018-08-23T00:37:20.439Z,4.57
2018-08-23T00:39:47.713Z,5.17
2018-08-23T00:42:15.003Z,4.70
2018-08-23T00:45:01.669Z,4.50
2018-08-23T00:47:31.126Z,6.60
2018-08-23T00:49:58.562Z,4.27
2018-08-23T00:52:46.002Z,4.33
2018-08-23T00:55:23.367Z,4.90
2018-08-23T00:57:50.722Z,4.70
2018-08-23T01:00:19.640Z,5.07
2018-08-23T01:02:54.312Z,5.00
2018-08-23T01:05:27.291Z,4.63
2018-08-23T01:07:54.579Z,4.90
2018-08-23T01:10:21.839Z,4.97
2018-08-23T01:12:54.390Z,5.30
2018-08-23T01:15:21.690Z,4.57
2018-08-23T01:17:53.601Z,5.00
2018-08-23T01:20:20.871Z,5.10
2018-08-23T01:22:59.256Z,4.53
2018-08-23T01:25:29.698Z,4.93
2018-08-23T01:27:56.973Z,5.10
2018-08-23T01:30:24.248Z,4.53
2018-08-23T01:32:51.551Z,4.80
2018-08-23T01:35:18.817Z,4.87
2018-08-23T01:37:46.090Z,5.97
2018-08-23T01:40:13.358Z,4.83
2018-08-23T01:42:41.467Z,4.87
2018-08-23T01:45:09.924Z,5.33
2018-08-23T01:47:43.404Z,4.73
2018-08-23T01:50:11.761Z,4.80
2018-08-23T01:52:48.059Z,4.47
2018-08-23T01:55:16.006Z,5.03
2018-08-23T01:57:43.599Z,4.80
2018-08-23T02:00:11.882Z,5.17
2018-08-23T02:02:39.198Z,4.90
2018-08-23T02:05:06.818Z,5.63
2018-08-23T02:07:34.133Z,4.50
2018-08-23T02:10:01.377Z,5.20
2018-08-23T02:12:28.620Z,5.43
2018-08-23T02:14:59.752Z,4.70
2018-08-23T02:17:27.084Z,4.40
2018-08-23T02:19:54.326Z,4.70
2018-08-23T02:22:21.601Z,5.20
2018-08-23T02:24:48.876Z,5.10
2018-08-23T02:27:17.627Z,4.87
2018-08-23T02:29:46.812Z,5.10
2018-08-23T02:32:14.013Z,5.47
2018-08-23T02:34:42.617Z,5.10
2018-08-23T02:37:11.819Z,4.60
2018-08-23T02:39:39.222Z,4.60
2018-08-23T02:42:06.556Z,4.93
2018-08-23T02:44:33.827Z,4.27
2018-08-23T02:47:02.615Z,4.77
2018-08-23T02:49:30.288Z,5.13
2018-08-23T02:51:57.553Z,4.13
2018-08-23T02:54:24.852Z,5.50
2018-08-23T02:56:55.345Z,4.70
2018-08-23T02:59:23.164Z,5.17
2018-08-23T03:01:50.696Z,5.40
2018-08-23T03:04:22.370Z,4.97
2018-08-23T03:06:54.984Z,5.83
2018-08-23T03:09:24.207Z,5.40
2018-08-23T03:11:53.522Z,4.93
2018-08-23T03:14:21.683Z,4.90
2018-08-23T03:16:54.290Z,5.27
2018-08-23T03:19:21.601Z,5.60
2018-08-23T03:21:57.634Z,6.70
2018-08-23T03:24:24.928Z,4.90
2018-08-23T03:26:52.264Z,5.03
2018-08-23T03:29:19.537Z,5.60
2018-08-23T03:31:46.899Z,4.73
2018-08-23T03:34:14.102Z,5.33
2018-08-23T03:36:41.356Z,5.30
2018-08-23T03:39:09.075Z,5.13
2018-08-23T03:41:36.468Z,4.60
2018-08-23T03:44:04.905Z,4.90
2018-08-23T03:46:43.298Z,5.70
2018-08-23T03:49:10.563Z,5.13
2018-08-23T03:51:37.865Z,4.83
2018-08-23T03:54:05.324Z,5.33
2018-08-23T03:56:32.559Z,5.90
2018-08-23T03:58:59.796Z,4.43
2018-08-23T04:01:27.036Z,5.40
2018-08-23T04:03:54.348Z,4.80
2018-08-23T04:06:36.248Z,5.83
2018-08-23T04:09:07.121Z,5.20
2018-08-23T04:11:34.346Z,5.70
2018-08-23T04:14:01.649Z,5.03
2018-08-23T04:16:30.307Z,5.37
2018-08-23T04:18:57.587Z,4.80
2018-08-23T04:21:25.361Z,5.53
2018-08-23T04:23:52.726Z,5.37
2018-08-23T04:26:20.375Z,5.07
2018-08-23T04:28:47.697Z,4.93
2018-08-23T04:31:15.132Z,5.20
2018-08-23T04:33:42.411Z,5.80
2018-08-23T04:36:26.250Z,4.83
2018-08-23T04:38:59.424Z,5.30
2018-08-23T04:41:27.558Z,5.53
2018-08-23T04:43:58.549Z,4.83
2018-08-23T04:46:25.840Z,5.73
2018-08-23T04:48:53.093Z,5.97
2018-08-23T04:51:20.365Z,5.77
2018-08-23T04:53:47.595Z,6.10
2018-08-23T04:56:14.887Z,5.27
2018-08-23T04:58:42.178Z,6.73
2018-08-23T05:01:09.582Z,5.70
2018-08-23T05:03:36.829Z,5.43
2018-08-23T05:06:04.174Z,5.10
2018-08-23T05:08:31.451Z,5.33
2018-08-23T05:10:58.707Z,5.80
2018-08-23T05:13:26.056Z,6.00
2018-08-23T05:15:53.341Z,4.87
2018-08-23T05:18:20.605Z,5.67
2018-08-23T05:20:47.846Z,5.57
2018-08-23T05:23:15.273Z,5.57
2018-08-23T05:25:42.561Z,5.40
2018-08-23T05:28:13.353Z,8.27
2018-08-23T05:30:41.558Z,5.50
2018-08-23T05:33:17.381Z,5.03
2018-08-23T05:35:44.803Z,5.93
2018-08-23T05:38:12.407Z,5.97
2018-08-23T05:40:43.639Z,6.07
2018-08-23T05:43:11.525Z,5.83
2018-08-23T05:45:44.340Z,5.37
2018-08-23T05:48:29.409Z,5.53
2018-08-23T05:50:57.289Z,5.33
2018-08-23T05:53:24.557Z,6.23
2018-08-23T05:55:53.277Z,6.30
2018-08-23T05:58:26.482Z,5.70
2018-08-23T06:00:53.819Z,5.70
2018-08-23T06:03:21.105Z,5.27
2018-08-23T06:05:49.064Z,5.60
2018-08-23T06:08:16.426Z,6.70
2018-08-23T06:10:46.041Z,5.63
2018-08-23T06:13:13.588Z,5.20
2018-08-23T06:15:45.723Z,9.63
2018-08-23T06:18:14.826Z,7.17
2018-08-23T06:20:42.112Z,6.20
2018-08-23T06:23:09.377Z,5.90
2018-08-23T06:25:36.802Z,6.03
2018-08-23T06:28:14.386Z,6.40
2018-08-23T06:30:41.626Z,6.40
2018-08-23T06:33:09.196Z,5.90
2018-08-23T06:35:40.145Z,5.90
2018-08-23T06:38:07.925Z,6.30
2018-08-23T06:40:35.449Z,5.83
2018-08-23T06:43:03.622Z,5.87
2018-08-23T06:45:30.950Z,6.77
2018-08-23T06:48:01.888Z,6.17
2018-08-23T06:50:29.182Z,7.30
2018-08-23T06:52:56.478Z,7.57
2018-08-23T06:55:27.967Z,6.03
2018-08-23T06:58:00.255Z,6.17
2018-08-23T07:00:27.784Z,6.80
2018-08-23T07:02:55.297Z,6.47
2018-08-23T07:05:22.724Z,6.73
2018-08-23T07:07:50.273Z,5.90
2018-08-23T07:10:17.540Z,6.33
2018-08-23T07:12:44.920Z,5.63
2018-08-23T07:15:12.204Z,6.10
2018-08-23T07:17:39.560Z,5.73
2018-08-23T07:20:10.692Z,6.10
2018-08-23T07:22:37.959Z,6.00
2018-08-23T07:25:08.340Z,6.27
2018-08-23T07:27:35.736Z,6.00
2018-08-23T07:30:04.795Z,5.93
2018-08-23T07:32:31.854Z,6.03
2018-08-23T07:35:15.552Z,6.90
2018-08-23T07:37:44.153Z,7.23
2018-08-23T07:40:12.769Z,7.30
2018-08-23T07:42:41.598Z,6.80
2018-08-23T07:45:09.311Z,7.07
2018-08-23T07:47:41.045Z,7.00
2018-08-23T07:50:08.379Z,7.20
2018-08-23T07:52:36.576Z,7.63
2018-08-23T07:55:05.100Z,7.70
2018-08-23T07:57:33.899Z,7.97
2018-08-23T08:00:03.026Z,7.00
2018-08-23T08:02:30.462Z,7.33
2018-08-23T08:04:58.264Z,7.00
2018-08-23T08:07:26.615Z,7.67
2018-08-23T08:09:53.988Z,7.10
2018-08-23T08:12:32.571Z,6.43
2018-08-23T08:14:59.974Z,7.17
2018-08-23T08:17:31.629Z,6.93
2018-08-23T08:19:59.226Z,7.40
2018-08-23T08:22:26.555Z,7.17
2018-08-23T08:25:09.099Z,5.87
2018-08-23T08:27:37.079Z,7.77
2018-08-23T08:30:05.888Z,7.10
2018-08-23T08:32:33.146Z,7.00
2018-08-23T08:35:00.485Z,7.40
2018-08-23T08:37:28.219Z,7.13
2018-08-23T08:39:55.885Z,7.10
2018-08-23T08:42:31.449Z,6.63
2018-08-23T08:45:07.209Z,7.60
2018-08-23T08:47:34.565Z,7.30
2018-08-23T08:50:01.928Z,8.00
2018-08-23T08:52:29.750Z,7.27
2018-08-23T08:54:57.045Z,7.63
2018-08-23T08:57:25.396Z,7.17
2018-08-23T08:59:53.237Z,7.10
2018-08-23T09:02:21.391Z,7.50
2018-08-23T09:04:48.742Z,7.40
2018-08-23T09:07:16.373Z,8.10
2018-08-23T09:09:43.789Z,7.23
2018-08-23T09:12:11.917Z,6.70
2018-08-23T09:14:40.221Z,7.60
2018-08-23T09:17:24.786Z,7.30
2018-08-23T09:20:06.612Z,7.40
2018-08-23T09:22:35.846Z,7.13
2018-08-23T09:25:05.119Z,8.10
2018-08-23T09:27:32.397Z,7.77
2018-08-23T09:30:00.775Z,7.20
2018-08-23T09:32:28.963Z,8.10
2018-08-23T09:35:00.507Z,7.97
2018-08-23T09:37:28.719Z,9.23
2018-08-23T09:39:55.996Z,8.07
2018-08-23T09:42:23.416Z,7.33
2018-08-23T09:45:17.951Z,8.47
2018-08-23T09:47:45.258Z,7.43
2018-08-23T09:50:12.777Z,8.23
2018-08-23T09:52:41.800Z,7.43
2018-08-23T09:55:11.614Z,7.20
2018-08-23T09:57:39.072Z,7.60
2018-08-23T10:00:07.951Z,7.70
2018-08-23T10:02:41.048Z,7.30
2018-08-23T10:05:14.021Z,7.00
2018-08-23T10:07:47.188Z,7.63
2018-08-23T10:11:20.795Z,7.80
2018-08-23T10:13:53.673Z,8.10
2018-08-23T10:16:27.193Z,8.47
2018-08-23T10:18:56.367Z,8.03
2018-08-23T10:21:29.494Z,7.83
2018-08-23T10:24:10.247Z,7.90
2018-08-23T10:26:37.667Z,7.63
2018-08-23T10:29:05.015Z,8.17
2018-08-23T10:31:33.437Z,8.00
2018-08-23T10:34:00.732Z,7.77
2018-08-23T10:36:27.977Z,9.10
2018-08-23T10:38:55.349Z,7.80
2018-08-23T10:41:22.974Z,7.50
2018-08-23T10:43:51.150Z,8.07
2018-08-23T10:46:18.467Z,8.50
2018-08-23T10:48:45.908Z,7.37
2018-08-23T10:51:13.300Z,7.37
2018-08-23T10:53:41.449Z,7.37
2018-08-23T10:56:11.326Z,8.00
2018-08-23T10:58:38.769Z,8.53
2018-08-23T11:01:07.693Z,8.13
2018-08-23T11:03:40.038Z,9.13
2018-08-23T11:06:07.425Z,8.23
2018-08-23T11:08:36.264Z,8.00
2018-08-23T11:11:09.164Z,8.20
2018-08-23T11:13:43.538Z,8.00
2018-08-23T11:16:16.616Z,8.00
2018-08-23T11:18:49.563Z,8.63
2018-08-23T11:21:17.510Z,7.30
2018-08-23T11:23:45.324Z,6.93
2018-08-23T11:26:18.507Z,6.63
2018-08-23T11:28:47.533Z,6.90
2018-08-23T11:31:20.559Z,7.97
2018-08-23T11:33:47.864Z,7.70
2018-08-23T11:36:15.238Z,7.00
2018-08-23T11:38:42.555Z,7.97
2018-08-23T11:41:09.946Z,7.80
2018-08-23T11:43:37.336Z,7.83
2018-08-23T11:46:11.174Z,7.97
2018-08-23T11:48:38.499Z,7.40
2018-08-23T11:51:05.776Z,7.80
2018-08-23T11:53:33.207Z,8.20
2018-08-23T11:56:00.955Z,8.30
2018-08-23T11:58:28.208Z,9.67
2018-08-23T12:01:01.271Z,9.23
2018-08-23T12:03:28.573Z,9.60
2018-08-23T12:05:55.883Z,9.60
2018-08-23T12:08:23.179Z,10.30
2018-08-23T12:10:50.545Z,10.10
2018-08-23T12:13:17.994Z,10.83
2018-08-23T12:15:45.269Z,9.63
2018-08-23T12:18:12.741Z,10.90
2018-08-23T12:20:40.029Z,9.33
2018-08-23T12:23:07.271Z,8.03
2018-08-23T12:25:34.548Z,8.70
2018-08-23T12:28:06.420Z,7.50
2018-08-23T12:30:33.778Z,7.80
2018-08-23T12:33:01.042Z,8.70
2018-08-23T12:35:28.785Z,7.57
2018-08-23T12:38:02.041Z,7.17
2018-08-23T12:40:35.873Z,6.63
2018-08-23T12:43:05.645Z,7.50
2018-08-23T12:45:32.962Z,7.97
2018-08-23T12:48:00.537Z,7.00
2018-08-23T12:50:27.790Z,6.83
2018-08-23T12:52:55.093Z,7.10
2018-08-23T12:55:23.391Z,8.87
2018-08-23T12:57:50.913Z,7.70
2018-08-23T13:00:18.236Z,7.80
2018-08-23T13:02:45.797Z,9.47
2018-08-23T13:05:14.458Z,9.77
2018-08-23T13:07:41.753Z,8.70
2018-08-23T13:10:09.014Z,9.17
2018-08-23T13:12:37.215Z,8.60
2018-08-23T13:15:04.513Z,8.80
2018-08-23T13:17:31.900Z,9.67
2018-08-23T13:19:59.119Z,9.13
2018-08-23T13:22:44.516Z,8.50
2018-08-23T13:25:13.040Z,7.87
2018-08-23T13:27:40.585Z,8.60
2018-08-23T13:30:07.883Z,8.20
2018-08-23T13:32:35.107Z,7.10
2018-08-23T13:35:02.598Z,7.37
2018-08-23T13:37:29.916Z,9.23
2018-08-23T13:39:57.209Z,7.63
2018-08-23T13:42:24.496Z,9.27
2018-08-23T13:44:52.335Z,8.73
2018-08-23T13:47:20.885Z,8.87
2018-08-23T13:49:48.357Z,8.50
2018-08-23T13:52:15.633Z,9.07
2018-08-23T13:54:43.626Z,8.17
2018-08-23T13:57:10.943Z,8.20
2018-08-23T13:59:38.174Z,9.33
2018-08-23T14:02:05.512Z,9.63
2018-08-23T14:04:32.731Z,7.70
2018-08-23T14:07:00.008Z,7.20
2018-08-23T14:09:27.257Z,8.50
2018-08-23T14:11:54.660Z,8.30
2018-08-23T14:14:22.144Z,8.20
2018-08-23T14:16:49.488Z,7.53
2018-08-23T14:19:16.912Z,7.57
2018-08-23T14:21:44.198Z,7.07
2018-08-23T14:24:11.445Z,8.20
2018-08-23T14:26:38.678Z,7.77
2018-08-23T14:29:05.920Z,7.70
2018-08-23T14:31:33.177Z,7.20
2018-08-23T14:34:00.471Z,7.07
2018-08-23T14:36:27.732Z,8.57
2018-08-23T14:38:54.995Z,6.93
2018-08-23T14:41:22.376Z,6.97
2018-08-23T14:43:49.704Z,7.20
2018-08-23T14:46:22.677Z,7.27
2018-08-23T14:48:49.961Z,6.90
2018-08-23T14:51:17.848Z,6.80
2018-08-23T14:53:46.247Z,7.17
2018-08-23T14:56:20.398Z,6.70
2018-08-23T14:58:47.710Z,8.43
2018-08-23T15:01:14.977Z,7.37
2018-08-23T15:03:42.222Z,7.43
2018-08-23T15:06:09.625Z,8.33
2018-08-23T15:08:36.889Z,7.80
2018-08-23T15:11:04.197Z,7.90
2018-08-23T15:13:31.457Z,7.73
2018-08-23T15:15:58.673Z,7.10
2018-08-23T15:18:26.960Z,7.40
2018-08-23T15:20:54.260Z,8.07
2018-08-23T15:23:21.467Z,8.50
2018-08-23T15:25:48.711Z,7.73
2018-08-23T15:28:15.945Z,6.70
2018-08-23T15:30:43.183Z,7.30
2018-08-23T15:33:10.592Z,6.73
2018-08-23T15:35:37.801Z,7.57
2018-08-23T15:38:05.339Z,7.70
2018-08-23T15:40:32.620Z,7.03
2018-08-23T15:42:59.885Z,7.30
2018-08-23T15:45:27.162Z,7.50
2018-08-23T15:47:54.466Z,7.60
2018-08-23T15:50:22.348Z,7.37
2018-08-23T15:52:50.076Z,6.97
2018-08-23T15:55:17.868Z,7.63
2018-08-23T15:57:45.154Z,7.63
2018-08-23T16:00:12.477Z,7.63
2018-08-23T16:02:39.701Z,7.60
2018-08-23T16:05:06.986Z,7.10
2018-08-23T16:07:34.219Z,7.10
2018-08-23T16:10:01.617Z,8.67
2018-08-23T16:12:28.893Z,7.90
2018-08-23T16:14:56.345Z,7.60
2018-08-23T16:17:29.410Z,7.13
2018-08-23T16:20:02.301Z,7.17
2018-08-23T16:22:29.561Z,8.10
2018-08-23T16:24:56.849Z,7.07
2018-08-23T16:27:24.057Z,7.03
2018-08-23T16:29:52.495Z,6.97
2018-08-23T16:32:25.311Z,7.50
2018-08-23T16:34:52.825Z,6.77
2018-08-23T16:37:20.175Z,7.20
